Squall — ZCIF2 — position and weather

sailwx.info

Track history (hours):
 
Tides and Currents Weather Stations Pressure Air Temp Water Temp Dewpoint Dewpoint Depression Visibility Wind Speed Wind Dir Waves Ship Positions

Squall

Last reported at 2014-Aug-31 19:25 UTC. Time now 2014-Sep-01 07:34 UTC.
Position N 43°49' E 007°47'.

Length 55 m; draft 5 m.

Type: Sailing vessel. MMSI: 319811000.

Date/timePositionNaut miles runAvg speedWind from/ knotsBaromVisibWave heightAir tempDewpointWater temp
2014-Aug-31 19:25N 43°49' E 007°47'11 6.1
2014-Aug-31 17:32N 43°51' E 008°03'1410.9
2014-Aug-31 16:16N 43°57' E 008°20'811.0
2014-Aug-31 15:32N 44°01' E 008°30'1111.0
2014-Aug-31 14:33N 44°06' E 008°43'1111.1
2014-Aug-31 13:33N 44°11' E 008°57'1110.9
2014-Aug-31 12:33N 44°17' E 009°10'3 3.0
2014-Aug-31 11:33N 44°18' E 009°14'0 0.0
2014-Aug-31 10:32N 44°18' E 009°14'0 0.0
2014-Aug-31 09:33N 44°18' E 009°14'0 0.0
2014-Aug-31 08:33N 44°18' E 009°13'0 0.0
2014-Aug-31 07:33N 44°18' E 009°13'0 0.0
2014-Aug-31 06:33N 44°18' E 009°13'0 0.0
2014-Aug-31 05:33N 44°18' E 009°14'0 0.0
2014-Aug-31 04:33N 44°18' E 009°14'0 0.0
2014-Aug-31 03:33N 44°18' E 009°14'0 0.0
2014-Aug-31 02:33N 44°18' E 009°14'0 0.0
2014-Aug-31 01:33N 44°18' E 009°14'0 0.0
2014-Aug-31 00:33N 44°18' E 009°14'0 0.0
2014-Aug-30 23:33N 44°18' E 009°14'0 0.0
2014-Aug-30 22:33N 44°18' E 009°14'0 0.0
2014-Aug-30 21:33N 44°18' E 009°13'0 0.0
2014-Aug-30 20:33N 44°18' E 009°14'0 0.0
2014-Aug-30 19:33N 44°18' E 009°14'0 0.0
2014-Aug-30 18:33N 44°18' E 009°13'0 0.0
2014-Aug-30 17:33N 44°18' E 009°13'0 0.0
2014-Aug-30 16:33N 44°18' E 009°13'0 0.0
2014-Aug-30 15:29N 44°18' E 009°14'0 0.0
2014-Aug-30 14:33N 44°18' E 009°14'0 0.0
2014-Aug-30 13:33N 44°18' E 009°13'0 0.0
2014-Aug-30 12:33N 44°18' E 009°13'0 0.0
2014-Aug-30 11:33N 44°18' E 009°13'0 0.4
2014-Aug-30 10:33N 44°18' E 009°13'0 0.1
2014-Aug-30 09:33N 44°18' E 009°13'0 0.0
2014-Aug-30 08:33N 44°18' E 009°13'0 0.0
2014-Aug-30 07:33N 44°18' E 009°13'0 0.0
2014-Aug-30 06:33N 44°18' E 009°13'0 0.0
2014-Aug-30 05:33N 44°18' E 009°13'0 0.0
2014-Aug-30 04:33N 44°18' E 009°13'0 0.0
2014-Aug-30 03:33N 44°18' E 009°13'0 0.0
2014-Aug-30 02:33N 44°18' E 009°13'0 0.0
2014-Aug-30 01:33N 44°18' E 009°13'0 0.0
2014-Aug-30 00:33N 44°18' E 009°13'0 0.0
2014-Aug-29 23:33N 44°18' E 009°13'0 0.0
2014-Aug-29 22:33N 44°18' E 009°13'0 0.0
2014-Aug-29 21:33N 44°18' E 009°13'0 0.0
2014-Aug-29 20:33N 44°18' E 009°13'0 0.0
2014-Aug-29 19:33N 44°18' E 009°13'0 0.0
2014-Aug-29 18:33N 44°18' E 009°13'0 0.0
2014-Aug-29 17:33N 44°18' E 009°13'0 0.0
2014-Aug-29 16:33N 44°18' E 009°13'0 0.0
2014-Aug-29 15:33N 44°18' E 009°13'0 0.0
2014-Aug-29 14:33N 44°18' E 009°13'0 0.0
2014-Aug-29 13:33N 44°18' E 009°13'0 0.0
2014-Aug-29 12:33N 44°18' E 009°13'0 0.0
2014-Aug-29 11:33N 44°18' E 009°13'0 0.0
2014-Aug-29 10:33N 44°18' E 009°13'0 0.0
2014-Aug-29 09:33N 44°18' E 009°13'0 0.0
2014-Aug-29 08:33N 44°18' E 009°13'1 0.0
2014-Aug-28 20:31N 44°19' E 009°13'0 0.0
2014-Aug-28 19:33N 44°19' E 009°13'1 1.4
2014-Aug-28 18:33N 44°17' E 009°13'1010.1
2014-Aug-28 17:33N 44°13' E 009°00'10 9.9
2014-Aug-28 16:33N 44°08' E 008°48'1010.2
2014-Aug-28 15:33N 44°03' E 008°35'1111.0
2014-Aug-28 14:33N 43°58' E 008°22'1110.5
2014-Aug-28 13:31N 43°53' E 008°08'1010.0
2014-Aug-28 12:33N 43°49' E 007°56'  
Track history (hours):
 
Tides and Currents Weather Stations Pressure Air Temp Water Temp Dewpoint Dewpoint Depression Visibility Wind Speed Wind Dir Waves Ship Positions

Squall

Last reported at 2014-Aug-31 19:25 UTC. Time now 2014-Sep-01 07:34 UTC.
Position N 43°49' E 007°47'.

Length 55 m; draft 5 m.

Type: Sailing vessel. MMSI: 319811000.

Date/timePositionNaut miles runAvg speedWind from/ knotsBaromVisibWave heightAir tempDewpointWater temp
2014-Aug-31 19:25N 43°49' E 007°47'11 6.1
2014-Aug-31 17:32N 43°51' E 008°03'1410.9
2014-Aug-31 16:16N 43°57' E 008°20'811.0
2014-Aug-31 15:32N 44°01' E 008°30'1111.0
2014-Aug-31 14:33N 44°06' E 008°43'1111.1
2014-Aug-31 13:33N 44°11' E 008°57'1110.9
2014-Aug-31 12:33N 44°17' E 009°10'3 3.0
2014-Aug-31 11:33N 44°18' E 009°14'0 0.0
2014-Aug-31 10:32N 44°18' E 009°14'0 0.0
2014-Aug-31 09:33N 44°18' E 009°14'0 0.0
2014-Aug-31 08:33N 44°18' E 009°13'0 0.0
2014-Aug-31 07:33N 44°18' E 009°13'0 0.0
2014-Aug-31 06:33N 44°18' E 009°13'0 0.0
2014-Aug-31 05:33N 44°18' E 009°14'0 0.0
2014-Aug-31 04:33N 44°18' E 009°14'0 0.0
2014-Aug-31 03:33N 44°18' E 009°14'0 0.0
2014-Aug-31 02:33N 44°18' E 009°14'0 0.0
2014-Aug-31 01:33N 44°18' E 009°14'0 0.0
2014-Aug-31 00:33N 44°18' E 009°14'0 0.0
2014-Aug-30 23:33N 44°18' E 009°14'0 0.0
2014-Aug-30 22:33N 44°18' E 009°14'0 0.0
2014-Aug-30 21:33N 44°18' E 009°13'0 0.0
2014-Aug-30 20:33N 44°18' E 009°14'0 0.0
2014-Aug-30 19:33N 44°18' E 009°14'0 0.0
2014-Aug-30 18:33N 44°18' E 009°13'0 0.0
2014-Aug-30 17:33N 44°18' E 009°13'0 0.0
2014-Aug-30 16:33N 44°18' E 009°13'0 0.0
2014-Aug-30 15:29N 44°18' E 009°14'0 0.0
2014-Aug-30 14:33N 44°18' E 009°14'0 0.0
2014-Aug-30 13:33N 44°18' E 009°13'0 0.0
2014-Aug-30 12:33N 44°18' E 009°13'0 0.0
2014-Aug-30 11:33N 44°18' E 009°13'0 0.4
2014-Aug-30 10:33N 44°18' E 009°13'0 0.1
2014-Aug-30 09:33N 44°18' E 009°13'0 0.0
2014-Aug-30 08:33N 44°18' E 009°13'0 0.0
2014-Aug-30 07:33N 44°18' E 009°13'0 0.0
2014-Aug-30 06:33N 44°18' E 009°13'0 0.0
2014-Aug-30 05:33N 44°18' E 009°13'0 0.0
2014-Aug-30 04:33N 44°18' E 009°13'0 0.0
2014-Aug-30 03:33N 44°18' E 009°13'0 0.0
2014-Aug-30 02:33N 44°18' E 009°13'0 0.0
2014-Aug-30 01:33N 44°18' E 009°13'0 0.0
2014-Aug-30 00:33N 44°18' E 009°13'0 0.0
2014-Aug-29 23:33N 44°18' E 009°13'0 0.0
2014-Aug-29 22:33N 44°18' E 009°13'0 0.0
2014-Aug-29 21:33N 44°18' E 009°13'0 0.0
2014-Aug-29 20:33N 44°18' E 009°13'0 0.0
2014-Aug-29 19:33N 44°18' E 009°13'0 0.0
2014-Aug-29 18:33N 44°18' E 009°13'0 0.0
2014-Aug-29 17:33N 44°18' E 009°13'0 0.0
2014-Aug-29 16:33N 44°18' E 009°13'0 0.0
2014-Aug-29 15:33N 44°18' E 009°13'0 0.0
2014-Aug-29 14:33N 44°18' E 009°13'0 0.0
2014-Aug-29 13:33N 44°18' E 009°13'0 0.0
2014-Aug-29 12:33N 44°18' E 009°13'0 0.0
2014-Aug-29 11:33N 44°18' E 009°13'0 0.0
2014-Aug-29 10:33N 44°18' E 009°13'0 0.0
2014-Aug-29 09:33N 44°18' E 009°13'0 0.0
2014-Aug-29 08:33N 44°18' E 009°13'1 0.0
2014-Aug-28 20:31N 44°19' E 009°13'0 0.0
2014-Aug-28 19:33N 44°19' E 009°13'1 1.4
2014-Aug-28 18:33N 44°17' E 009°13'1010.1
2014-Aug-28 17:33N 44°13' E 009°00'10 9.9
2014-Aug-28 16:33N 44°08' E 008°48'1010.2
2014-Aug-28 15:33N 44°03' E 008°35'1111.0
2014-Aug-28 14:33N 43°58' E 008°22'1110.5
2014-Aug-28 13:31N 43°53' E 008°08'1010.0
2014-Aug-28 12:33N 43°49' E 007°56'  

Dump ship's entire track history